Time;durP1;ratioP1;P1;durP2;ratioP2;P2;SDS_P1;SDS_P2;PMS_P1;PMS_P2;Temp;Humidity;BMP_temperature;BMP_pressure;BME280_temperature;BME280_humidity;BME280_pressure;Samples;Min_cycle;Max_cycle;Signal;HPM_P1;HPM_P2
2022/08/26 00:01:36;;;;;;;23.85;18.33;;;21.40;99.90;;;;;;5029900;28;20038;-76
2022/08/26 00:04:02;;;;;;;23.85;17.27;;;21.30;99.90;;;;;;5012073;28;20041;-75
2022/08/26 00:06:30;;;;;;;25.33;18.25;;;21.30;99.90;;;;;;5028140;28;20044;-75
2022/08/26 00:08:56;;;;;;;23.85;17.80;;;21.30;99.90;;;;;;5028328;28;20150;-75
2022/08/26 00:11:22;;;;;;;21.75;17.58;;;21.30;99.90;;;;;;5029919;28;20118;-75
2022/08/26 00:13:47;;;;;;;24.30;18.27;;;21.30;99.90;;;;;;5029336;28;20073;-75
2022/08/26 00:16:13;;;;;;;23.13;17.75;;;21.30;99.90;;;;;;5028397;28;20033;-75
2022/08/26 00:18:39;;;;;;;22.30;16.77;;;21.30;99.90;;;;;;5011803;28;20121;-75
2022/08/26 00:21:07;;;;;;;23.45;16.95;;;21.20;99.90;;;;;;5028249;28;20045;-76
2022/08/26 00:23:33;;;;;;;25.15;17.58;;;21.30;99.90;;;;;;5021770;28;20460;-75
2022/08/26 00:25:59;;;;;;;23.80;17.17;;;21.30;99.90;;;;;;5028180;28;20392;-75
2022/08/26 00:28:25;;;;;;;26.25;17.38;;;21.30;99.90;;;;;;5027759;28;20046;-76
2022/08/26 00:30:52;;;;;;;23.52;18.02;;;21.20;99.90;;;;;;5019338;28;20088;-75
2022/08/26 00:33:18;;;;;;;21.30;17.10;;;21.10;99.90;;;;;;5011720;28;20111;-75
2022/08/26 00:35:48;;;;;;;24.00;18.40;;;21.10;99.90;;;;;;5029392;28;20041;-77
2022/08/26 00:38:14;;;;;;;23.80;17.88;;;21.10;99.90;;;;;;5029131;28;20077;-76
2022/08/26 00:40:49;;;;;;;25.80;17.73;;;21.00;99.90;;;;;;5029316;28;20047;-76
2022/08/26 00:43:16;;;;;;;22.63;17.33;;;21.00;99.90;;;;;;5028957;28;20052;-76
2022/08/26 00:45:48;;;;;;;21.45;16.90;;;20.90;99.90;;;;;;5029565;28;20041;-75
2022/08/26 00:48:18;;;;;;;23.05;17.23;;;20.90;99.90;;;;;;5027728;28;20061;-74
2022/08/26 00:50:55;;;;;;;26.75;17.08;;;20.90;99.90;;;;;;5011666;28;20227;-75
2022/08/26 00:53:25;;;;;;;24.45;17.38;;;20.90;99.90;;;;;;5029472;28;20038;-76
2022/08/26 00:55:59;;;;;;;23.92;16.80;;;20.90;99.90;;;;;;5027781;28;20528;-75
2022/08/26 00:58:28;;;;;;;24.45;17.33;;;20.90;99.90;;;;;;5029176;28;20037;-75
2022/08/26 01:00:54;;;;;;;26.50;17.63;;;20.80;99.90;;;;;;5011701;28;20091;-75
2022/08/26 01:03:24;;;;;;;25.77;18.05;;;20.80;99.90;;;;;;5028132;28;20079;-75
2022/08/26 01:05:57;;;;;;;24.55;17.48;;;20.80;99.90;;;;;;5028287;28;20056;-74
2022/08/26 01:08:23;;;;;;;25.52;17.17;;;20.80;99.90;;;;;;5038327;28;20053;-75
2022/08/26 01:10:51;;;;;;;24.63;16.30;;;20.80;99.90;;;;;;5031495;28;20048;-75
2022/08/26 01:13:17;;;;;;;25.98;17.80;;;20.70;99.90;;;;;;5032036;28;20419;-75
2022/08/26 01:15:55;;;;;;;23.65;17.23;;;20.70;99.90;;;;;;5033002;28;20037;-76
2022/08/26 01:18:22;;;;;;;27.70;17.90;;;20.70;99.90;;;;;;5031668;28;20045;-74
2022/08/26 01:21:05;;;;;;;25.55;17.23;;;20.70;99.90;;;;;;5033046;28;20055;-75
2022/08/26 01:23:34;;;;;;;26.13;16.98;;;20.80;99.90;;;;;;5032742;28;20081;-76
2022/08/26 01:26:10;;;;;;;30.20;17.75;;;20.70;99.90;;;;;;5031678;28;20562;-75
2022/08/26 01:28:37;;;;;;;30.10;17.90;;;20.70;99.90;;;;;;5030707;28;20567;-75
2022/08/26 01:31:06;;;;;;;24.95;17.85;;;20.70;99.90;;;;;;5032661;28;20593;-74
2022/08/26 01:33:42;;;;;;;26.02;17.88;;;20.60;99.90;;;;;;5032666;28;20064;-75
2022/08/26 01:36:09;;;;;;;29.02;18.52;;;20.60;99.90;;;;;;5031067;28;20037;-75
2022/08/26 01:38:35;;;;;;;29.33;17.88;;;20.60;99.90;;;;;;5031001;28;20114;-73
2022/08/26 01:41:01;;;;;;;30.13;18.35;;;20.60;99.90;;;;;;5032591;28;20503;-76
2022/08/26 01:43:29;;;;;;;30.95;18.58;;;20.60;99.90;;;;;;5032271;28;20172;-75
2022/08/26 01:45:55;;;;;;;35.65;18.52;;;20.60;99.90;;;;;;5032724;28;20246;-74
2022/08/26 01:48:26;;;;;;;29.52;18.10;;;20.50;99.90;;;;;;5031937;28;20050;-74
2022/08/26 01:50:53;;;;;;;27.92;16.92;;;20.50;99.90;;;;;;5030785;28;20527;-76
2022/08/26 01:53:22;;;;;;;27.58;17.05;;;20.50;99.90;;;;;;5030813;28;20600;-74
2022/08/26 01:55:53;;;;;;;32.67;18.45;;;20.50;99.90;;;;;;5030907;28;20037;-75
2022/08/26 01:58:31;;;;;;;30.13;17.65;;;20.50;99.90;;;;;;5030964;28;20049;-75
2022/08/26 02:00:57;;;;;;;30.52;18.00;;;20.50;99.90;;;;;;5030798;28;20037;-75
2022/08/26 02:03:23;;;;;;;30.95;17.23;;;20.50;99.90;;;;;;5031901;28;20056;-76
2022/08/26 02:05:53;;;;;;;32.35;18.98;;;20.50;99.90;;;;;;5014723;28;20606;-75
2022/08/26 02:08:24;;;;;;;29.75;18.60;;;20.50;99.90;;;;;;5036801;28;20057;-75
2022/08/26 02:10:51;;;;;;;26.65;18.17;;;20.50;99.90;;;;;;5031957;28;20443;-75
2022/08/26 02:13:17;;;;;;;29.25;18.27;;;20.50;99.90;;;;;;5030406;28;20034;-75
2022/08/26 02:15:44;;;;;;;32.00;18.83;;;20.40;99.90;;;;;;5032209;28;20038;-75
2022/08/26 02:18:11;;;;;;;32.03;18.92;;;20.40;99.90;;;;;;5031566;28;20048;-75
2022/08/26 02:20:37;;;;;;;27.63;17.20;;;20.40;99.90;;;;;;5014336;28;20049;-74
2022/08/26 02:23:03;;;;;;;33.22;17.67;;;20.40;99.90;;;;;;5013922;28;20134;-76
2022/08/26 02:25:51;;;;;;;29.17;16.80;;;20.40;99.90;;;;;;5030455;28;20109;-75
2022/08/26 02:28:17;;;;;;;33.15;17.55;;;20.50;99.90;;;;;;5030226;28;20107;-75
2022/08/26 02:30:43;;;;;;;30.02;17.33;;;20.50;99.90;;;;;;4997744;28;20518;-75
2022/08/26 02:33:10;;;;;;;30.10;16.75;;;20.50;99.90;;;;;;5030033;28;20112;-75
2022/08/26 02:35:36;;;;;;;26.58;15.95;;;20.50;99.90;;;;;;5030077;28;20491;-74
2022/08/26 02:38:04;;;;;;;30.55;17.33;;;20.50;99.90;;;;;;5029923;28;20049;-75
2022/08/26 02:40:33;;;;;;;29.45;17.58;;;20.50;99.90;;;;;;5031256;28;20511;-74
2022/08/26 02:42:59;;;;;;;30.52;17.58;;;20.50;99.90;;;;;;5029921;28;20411;-75
2022/08/26 02:45:27;;;;;;;26.20;17.40;;;20.40;99.90;;;;;;5030020;28;20033;-75
2022/08/26 02:47:54;;;;;;;33.10;17.92;;;20.50;99.90;;;;;;5031085;28;20045;-75
2022/08/26 02:50:21;;;;;;;33.22;18.55;;;20.50;99.90;;;;;;5013724;28;20531;-74
2022/08/26 02:52:47;;;;;;;35.25;17.40;;;20.50;99.90;;;;;;5029509;28;20570;-75
2022/08/26 02:55:14;;;;;;;26.38;16.27;;;20.50;99.90;;;;;;5013492;28;20041;-77
2022/08/26 02:57:40;;;;;;;29.50;16.27;;;20.50;99.90;;;;;;5013180;28;20508;-75
2022/08/26 03:00:08;;;;;;;27.25;16.70;;;20.50;99.90;;;;;;5031027;28;20038;-75
2022/08/26 03:02:34;;;;;;;32.10;16.73;;;20.50;99.90;;;;;;5013039;28;20416;-74
2022/08/26 03:05:00;;;;;;;25.70;14.82;;;20.50;99.90;;;;;;5031272;28;20042;-75
2022/08/26 03:07:26;;;;;;;32.20;16.48;;;19.70;99.90;;;;;;5029414;28;20045;-74
2022/08/26 03:09:51;;;;;;;34.22;15.95;;;20.60;99.90;;;;;;5013145;28;20041;-75
2022/08/26 03:12:19;;;;;;;25.92;15.30;;;20.50;99.90;;;;;;5030988;28;20037;-75
2022/08/26 03:14:46;;;;;;;30.75;16.25;;;20.60;99.90;;;;;;5013582;28;20112;-75
2022/08/26 03:17:12;;;;;;;27.23;14.63;;;20.60;99.90;;;;;;5030594;28;20045;-75
2022/08/26 03:19:38;;;;;;;26.40;15.40;;;20.50;99.90;;;;;;5030555;28;20106;-76
2022/08/26 03:22:04;;;;;;;27.05;16.00;;;20.50;99.90;;;;;;5029227;28;20049;-74
2022/08/26 03:24:30;;;;;;;28.15;15.73;;;20.50;99.90;;;;;;5030830;28;20040;-76
2022/08/26 03:26:56;;;;;;;29.83;16.00;;;20.50;99.90;;;;;;5012695;28;20076;-75
2022/08/26 03:32:08;;;;;;;24.45;15.90;;;20.50;99.90;;;;;;5028803;28;20053;-75
2022/08/26 03:34:34;;;;;;;29.00;16.17;;;20.50;99.90;;;;;;5028546;28;20072;-75
2022/08/26 03:37:01;;;;;;;27.92;15.30;;;20.50;99.90;;;;;;5029257;28;20037;-74
2022/08/26 03:39:27;;;;;;;27.73;16.13;;;20.50;99.90;;;;;;5012662;28;20542;-76
2022/08/26 03:41:53;;;;;;;29.40;15.43;;;20.50;99.90;;;;;;5028690;28;20034;-75
2022/08/26 03:44:18;;;;;;;28.95;15.70;;;20.50;99.90;;;;;;5028887;28;20045;-76
2022/08/26 03:46:45;;;;;;;26.98;14.80;;;20.50;99.90;;;;;;5012439;28;20044;-75
2022/08/26 03:49:11;;;;;;;25.65;14.85;;;20.50;99.90;;;;;;5030096;28;20461;-75
2022/08/26 03:51:37;;;;;;;25.67;13.48;;;20.50;99.90;;;;;;5028987;28;20073;-75
2022/08/26 03:54:04;;;;;;;24.23;13.20;;;20.50;99.90;;;;;;5012155;28;20045;-75
2022/08/26 03:56:32;;;;;;;25.17;13.60;;;20.50;99.90;;;;;;5028681;28;20488;-75
2022/08/26 03:58:59;;;;;;;27.92;13.63;;;20.50;99.90;;;;;;5028698;28;20041;-76
2022/08/26 04:01:24;;;;;;;24.75;13.13;;;20.50;99.90;;;;;;5028598;28;20388;-75
2022/08/26 04:03:56;;;;;;;26.48;13.05;;;20.50;99.90;;;;;;5012334;28;20045;-74
2022/08/26 04:06:26;;;;;;;28.92;13.57;;;20.50;99.90;;;;;;5028716;28;20049;-74
2022/08/26 04:08:58;;;;;;;24.60;13.65;;;20.50;99.90;;;;;;5012407;28;20045;-75
2022/08/26 04:11:30;;;;;;;26.92;13.35;;;20.50;99.90;;;;;;5028606;28;20045;-76
2022/08/26 04:13:59;;;;;;;24.67;12.88;;;20.50;99.90;;;;;;5029688;28;20099;-75
2022/08/26 04:16:27;;;;;;;23.67;11.95;;;20.50;99.90;;;;;;5012718;28;20041;-75
2022/08/26 04:18:54;;;;;;;25.70;12.60;;;20.50;99.90;;;;;;5029911;28;20073;-74
2022/08/26 04:21:20;;;;;;;23.67;11.18;;;20.50;99.90;;;;;;5029729;28;20053;-75
2022/08/26 04:23:46;;;;;;;24.73;12.20;;;20.50;99.90;;;;;;5011910;28;20041;-75
2022/08/26 04:26:12;;;;;;;25.80;12.75;;;20.40;99.90;;;;;;5029563;28;20095;-74
2022/08/26 04:28:37;;;;;;;22.83;11.52;;;20.40;99.90;;;;;;5011881;28;20103;-75
2022/08/26 04:31:03;;;;;;;22.60;11.27;;;20.40;99.90;;;;;;5028494;28;20172;-75
2022/08/26 04:33:29;;;;;;;22.67;11.25;;;20.40;99.90;;;;;;5029589;28;20326;-75
2022/08/26 04:36:01;;;;;;;25.95;12.43;;;20.40;99.90;;;;;;5029906;28;20037;-74
2022/08/26 04:38:27;;;;;;;21.88;11.48;;;20.40;99.90;;;;;;5029635;28;20044;-75
2022/08/26 04:40:54;;;;;;;21.25;11.32;;;20.40;99.90;;;;;;5028569;28;20049;-76
2022/08/26 04:43:19;;;;;;;23.25;11.35;;;20.40;99.90;;;;;;5029228;28;20200;-76
2022/08/26 04:45:47;;;;;;;23.80;12.25;;;20.40;99.90;;;;;;5031571;28;20033;-75
2022/08/26 04:48:14;;;;;;;26.20;11.60;;;20.40;99.90;;;;;;5032091;28;20076;-75
2022/08/26 04:50:42;;;;;;;23.58;11.13;;;20.40;99.90;;;;;;5032623;28;20075;-74
2022/08/26 04:53:08;;;;;;;23.83;11.70;;;20.40;99.90;;;;;;4999231;28;20274;-75
2022/08/26 04:55:34;;;;;;;24.95;11.88;;;20.30;99.90;;;;;;5032407;28;20057;-74
2022/08/26 04:58:00;;;;;;;20.45;11.68;;;20.40;99.90;;;;;;5015433;28;20037;-74
2022/08/26 05:00:25;;;;;;;25.67;11.55;;;20.50;99.90;;;;;;5031995;28;20416;-75
2022/08/26 05:02:51;;;;;;;21.63;11.27;;;20.40;99.90;;;;;;5015612;28;20041;-74
2022/08/26 05:05:17;;;;;;;23.95;12.02;;;20.40;99.90;;;;;;5033522;28;20108;-75
2022/08/26 05:07:43;;;;;;;26.05;12.60;;;20.40;99.90;;;;;;5022327;28;20072;-75
2022/08/26 05:10:10;;;;;;;23.23;12.02;;;20.40;99.90;;;;;;5015541;28;20133;-75
2022/08/26 05:12:36;;;;;;;22.88;11.68;;;20.40;99.90;;;;;;5031717;28;20105;-75
2022/08/26 05:15:01;;;;;;;23.67;11.52;;;20.40;99.90;;;;;;5032200;28;20183;-75
2022/08/26 05:17:27;;;;;;;23.90;12.45;;;20.40;99.90;;;;;;5032687;28;20045;-75
2022/08/26 05:19:53;;;;;;;25.38;11.73;;;20.40;99.90;;;;;;5033095;28;20200;-75
2022/08/26 05:22:19;;;;;;;23.50;11.73;;;20.40;99.90;;;;;;5031681;28;20048;-75
2022/08/26 05:24:45;;;;;;;23.63;12.38;;;20.40;99.90;;;;;;5015344;28;20097;-75
2022/08/26 05:27:12;;;;;;;26.90;12.65;;;20.40;99.90;;;;;;5031181;28;20059;-75
2022/08/26 05:29:38;;;;;;;24.60;12.63;;;20.40;99.90;;;;;;5032857;28;20136;-75
2022/08/26 05:32:04;;;;;;;23.02;12.80;;;20.40;99.90;;;;;;5032664;28;20041;-75
2022/08/26 05:34:31;;;;;;;23.95;13.05;;;20.40;99.90;;;;;;5031445;28;20033;-75
2022/08/26 05:36:57;;;;;;;21.17;12.82;;;20.40;99.90;;;;;;5015429;28;20071;-76
2022/08/26 05:39:23;;;;;;;22.40;13.05;;;20.40;99.90;;;;;;5017935;28;20053;-75
2022/08/26 05:41:49;;;;;;;22.63;13.35;;;20.40;99.90;;;;;;5031324;28;20042;-75
2022/08/26 05:44:17;;;;;;;25.45;13.15;;;20.40;99.90;;;;;;5030151;28;20412;-75
2022/08/26 05:46:44;;;;;;;25.20;13.85;;;20.40;99.90;;;;;;5014060;28;20045;-75
2022/08/26 05:49:12;;;;;;;25.17;13.13;;;20.40;99.90;;;;;;5029659;28;20303;-76
2022/08/26 05:51:40;;;;;;;26.42;13.32;;;20.40;99.90;;;;;;5031486;28;20185;-75
2022/08/26 05:54:05;;;;;;;24.40;13.30;;;20.50;99.90;;;;;;5029682;28;20041;-75
2022/08/26 05:56:32;;;;;;;22.55;12.80;;;20.50;99.90;;;;;;5013371;28;20041;-75
2022/08/26 05:59:01;;;;;;;25.30;12.35;;;20.50;99.90;;;;;;5013357;28;20522;-75
2022/08/26 06:01:27;;;;;;;23.73;12.55;;;20.50;99.90;;;;;;5030015;28;20038;-75
2022/08/26 06:03:59;;;;;;;21.83;12.30;;;20.50;99.90;;;;;;5030852;28;20080;-75
2022/08/26 06:06:27;;;;;;;22.88;12.07;;;20.40;99.90;;;;;;5030224;28;20053;-75
2022/08/26 06:08:54;;;;;;;24.52;12.15;;;20.50;99.90;;;;;;5031408;28;20046;-74
2022/08/26 06:11:24;;;;;;;22.77;11.85;;;20.50;99.90;;;;;;5029849;28;20041;-74
2022/08/26 06:13:52;;;;;;;24.65;11.70;;;20.50;99.90;;;;;;5031024;28;20033;-75
2022/08/26 06:16:21;;;;;;;23.42;12.27;;;20.60;99.90;;;;;;5029763;28;20045;-75
2022/08/26 06:18:48;;;;;;;25.73;12.30;;;20.60;99.90;;;;;;5031025;28;20037;-76
2022/08/26 06:21:23;;;;;;;22.27;11.65;;;20.60;99.90;;;;;;5030805;28;20036;-75
2022/08/26 06:26:36;;;;;;;20.45;10.93;;;20.60;99.90;;;;;;5029585;28;20456;-75
2022/08/26 06:29:04;;;;;;;22.40;11.65;;;20.60;99.90;;;;;;5029097;28;20121;-76
2022/08/26 06:31:32;;;;;;;21.00;11.00;;;20.50;99.90;;;;;;5012754;28;20044;-75
2022/08/26 06:34:00;;;;;;;19.60;10.23;;;20.60;99.90;;;;;;5029300;28;20052;-74
2022/08/26 06:36:31;;;;;;;22.85;11.57;;;20.50;99.90;;;;;;5030951;28;20069;-75
2022/08/26 06:39:06;;;;;;;20.08;10.95;;;20.50;99.90;;;;;;5030625;28;20116;-74
2022/08/26 06:41:33;;;;;;;23.10;10.27;;;20.60;99.90;;;;;;5029368;28;20110;-76
2022/08/26 06:44:00;;;;;;;22.60;10.50;;;20.50;99.90;;;;;;4973920;28;1148334;-76
2022/08/26 06:46:28;;;;;;;19.63;9.90;;;21.30;99.90;;;;;;5030256;28;20073;-75
2022/08/26 06:48:54;;;;;;;21.48;10.55;;;20.80;99.90;;;;;;5031404;28;20050;-75
2022/08/26 06:51:23;;;;;;;19.48;9.80;;;20.90;99.90;;;;;;5031521;28;20095;-76
2022/08/26 06:53:51;;;;;;;22.58;10.40;;;20.90;99.90;;;;;;5030965;28;20455;-75
2022/08/26 06:56:20;;;;;;;21.52;9.85;;;20.90;99.90;;;;;;5029839;28;20048;-76
2022/08/26 06:58:46;;;;;;;20.15;9.10;;;20.90;99.90;;;;;;5030920;28;20049;-75
2022/08/26 07:01:28;;;;;;;20.05;8.90;;;20.90;99.90;;;;;;5013336;28;20120;-76
2022/08/26 07:03:57;;;;;;;20.70;9.57;;;21.00;99.90;;;;;;5029643;28;20051;-75
2022/08/26 07:06:24;;;;;;;20.27;9.38;;;21.00;99.90;;;;;;5029832;28;20053;-75
2022/08/26 07:08:52;;;;;;;18.85;8.00;;;21.00;99.90;;;;;;5012054;28;20107;-74
2022/08/26 07:11:19;;;;;;;18.20;8.55;;;21.00;99.90;;;;;;5013452;28;20231;-74
2022/08/26 07:13:45;;;;;;;23.48;9.63;;;21.00;99.90;;;;;;5029272;28;20045;-75
2022/08/26 07:16:12;;;;;;;17.75;8.73;;;21.00;99.90;;;;;;5013365;28;20041;-74
2022/08/26 07:18:40;;;;;;;18.50;9.88;;;21.00;99.90;;;;;;5030549;28;20451;-75
2022/08/26 07:21:10;;;;;;;20.45;9.70;;;20.90;99.90;;;;;;5029772;28;20049;-75
2022/08/26 07:23:37;;;;;;;22.50;8.57;;;20.90;99.90;;;;;;5030570;28;20041;-74
2022/08/26 07:26:08;;;;;;;18.88;9.05;;;20.90;99.90;;;;;;4996885;28;20075;-75
2022/08/26 07:28:35;;;;;;;20.05;8.98;;;20.90;99.90;;;;;;5030287;28;20045;-75
2022/08/26 07:31:05;;;;;;;19.40;8.88;;;20.80;99.90;;;;;;5029784;28;20120;-75
2022/08/26 07:33:31;;;;;;;25.55;9.05;;;20.90;99.90;;;;;;5012292;28;20091;-75
2022/08/26 07:35:57;;;;;;;21.80;8.70;;;20.90;99.90;;;;;;5029434;28;20042;-74
2022/08/26 07:38:22;;;;;;;18.60;7.95;;;20.90;99.90;;;;;;5028564;28;20123;-75
2022/08/26 07:40:48;;;;;;;21.42;8.68;;;20.90;99.90;;;;;;5012601;28;20041;-75
2022/08/26 07:43:14;;;;;;;22.25;7.65;;;20.90;99.90;;;;;;5029879;28;20061;-75
2022/08/26 07:45:41;;;;;;;17.38;7.40;;;20.90;99.90;;;;;;5012828;28;20173;-75
2022/08/26 07:48:07;;;;;;;15.68;7.13;;;20.90;99.90;;;;;;5011956;28;20049;-75
2022/08/26 07:50:33;;;;;;;16.77;7.05;;;20.90;99.90;;;;;;5028881;28;20121;-75
2022/08/26 07:53:00;;;;;;;13.65;6.05;;;21.00;99.90;;;;;;5028341;28;20057;-75
2022/08/26 07:55:27;;;;;;;15.82;5.78;;;21.00;99.90;;;;;;5028789;28;20042;-76
2022/08/26 07:57:52;;;;;;;15.57;5.63;;;21.00;99.90;;;;;;5030085;28;20456;-74
2022/08/26 08:00:19;;;;;;;17.23;6.13;;;21.10;99.90;;;;;;4996252;28;20048;-75
2022/08/26 08:02:45;;;;;;;17.08;6.45;;;21.20;99.90;;;;;;5029693;28;20447;-76
2022/08/26 08:05:14;;;;;;;17.08;6.40;;;21.10;99.90;;;;;;4996053;28;20102;-75
2022/08/26 08:07:40;;;;;;;15.90;6.10;;;21.10;99.90;;;;;;5004988;28;20037;-75
2022/08/26 08:10:07;;;;;;;18.25;6.22;;;21.10;99.90;;;;;;5012464;28;20187;-75
2022/08/26 08:12:33;;;;;;;15.48;5.65;;;21.10;99.90;;;;;;5029772;28;20073;-75
2022/08/26 08:15:03;;;;;;;16.48;5.30;;;21.10;99.90;;;;;;5029808;28;20041;-76
2022/08/26 08:17:28;;;;;;;14.05;4.82;;;21.20;99.90;;;;;;5028436;28;20049;-76
2022/08/26 08:19:54;;;;;;;16.48;5.03;;;21.20;99.90;;;;;;5028711;28;20488;-74
2022/08/26 08:22:22;;;;;;;12.13;4.68;;;21.30;99.90;;;;;;5028066;28;20045;-74
2022/08/26 08:24:51;;;;;;;12.73;4.30;;;21.40;99.90;;;;;;5012432;28;20495;-75
2022/08/26 08:27:17;;;;;;;13.65;4.82;;;21.40;99.90;;;;;;5028026;28;20045;-74
2022/08/26 08:29:45;;;;;;;12.00;3.95;;;21.40;99.90;;;;;;5028400;28;20052;-75
2022/08/26 08:32:12;;;;;;;13.00;4.50;;;21.40;99.90;;;;;;5012243;28;20057;-75
2022/08/26 08:34:38;;;;;;;11.88;4.20;;;21.50;99.90;;;;;;5012174;28;20124;-75
2022/08/26 08:37:05;;;;;;;13.25;4.30;;;21.50;99.90;;;;;;4995477;28;20611;-75
2022/08/26 08:39:30;;;;;;;10.90;3.88;;;21.70;99.90;;;;;;5028186;28;20041;-74
2022/08/26 08:42:35;;;;;;;13.55;4.00;;;21.80;99.90;;;;;;5027905;28;20052;-74
2022/08/26 08:45:24;;;;;;;10.93;3.35;;;21.80;99.90;;;;;;5001491;28;20126;-74
2022/08/26 08:48:00;;;;;;;10.10;3.38;;;21.80;99.90;;;;;;5010142;28;20092;-75
2022/08/26 08:50:33;;;;;;;10.55;3.35;;;21.90;99.90;;;;;;5028582;28;20072;-74
2022/08/26 08:53:08;;;;;;;10.75;3.45;;;22.00;99.90;;;;;;5029169;28;20049;-75
2022/08/26 08:55:48;;;;;;;10.73;3.30;;;22.10;99.90;;;;;;5028260;28;20080;-74
2022/08/26 08:58:20;;;;;;;9.10;2.90;;;22.10;99.90;;;;;;5028200;28;20037;-75
2022/08/26 09:01:10;;;;;;;10.48;3.00;;;22.20;99.90;;;;;;5029304;28;20033;-74
2022/08/26 09:03:50;;;;;;;13.80;2.85;;;22.10;99.90;;;;;;5028011;28;20232;-75
2022/08/26 09:06:17;;;;;;;12.10;3.08;;;21.90;99.90;;;;;;5011526;28;20053;-74
2022/08/26 09:08:46;;;;;;;12.23;3.05;;;21.80;99.90;;;;;;5021656;28;20120;-75
2022/08/26 09:11:13;;;;;;;13.18;3.10;;;21.60;99.90;;;;;;5028144;28;20079;-75
2022/08/26 09:13:53;;;;;;;14.20;2.90;;;21.50;99.90;;;;;;5028036;28;20033;-75
2022/08/26 09:16:31;;;;;;;12.93;3.30;;;21.50;99.90;;;;;;5029158;28;20053;-74
2022/08/26 09:19:13;;;;;;;11.38;2.97;;;21.40;99.90;;;;;;5027777;28;20060;-75
2022/08/26 09:21:39;;;;;;;15.07;3.35;;;21.40;99.90;;;;;;5027972;28;20079;-75
2022/08/26 09:24:06;;;;;;;11.82;3.10;;;21.40;99.90;;;;;;5011162;28;20037;-73
2022/08/26 09:26:38;;;;;;;9.02;2.65;;;21.50;99.90;;;;;;5028328;28;20531;-73
2022/08/26 09:29:10;;;;;;;10.00;2.67;;;21.50;99.90;;;;;;5027295;28;20041;-75
2022/08/26 09:31:37;;;;;;;12.20;2.70;;;21.40;99.90;;;;;;5029697;28;20045;-75
2022/08/26 09:34:18;;;;;;;12.15;3.20;;;21.40;99.90;;;;;;5032800;28;20163;-75
2022/08/26 09:36:50;;;;;;;13.60;2.85;;;21.40;99.90;;;;;;5031977;28;20041;-75
2022/08/26 09:39:29;;;;;;;7.40;2.30;;;21.50;99.90;;;;;;5032827;28;20128;-75
2022/08/26 09:42:08;;;;;;;10.82;2.50;;;21.40;99.90;;;;;;5032449;28;20042;-74
2022/08/26 09:44:52;;;;;;;11.40;2.70;;;21.40;99.90;;;;;;5031143;28;20048;-75
2022/08/26 09:47:26;;;;;;;7.82;2.28;;;21.50;99.90;;;;;;5032084;28;20522;-75
2022/08/26 09:50:17;;;;;;;13.68;3.03;;;21.50;99.90;;;;;;5032614;28;20114;-75
2022/08/26 09:52:43;;;;;;;11.13;2.80;;;21.50;99.90;;;;;;5020151;28;20045;-75
2022/08/26 09:55:13;;;;;;;11.38;2.83;;;21.60;99.90;;;;;;5031362;28;20079;-75
2022/08/26 09:57:52;;;;;;;10.27;3.08;;;21.60;99.90;;;;;;5032025;28;20083;-75
2022/08/26 10:00:34;;;;;;;13.50;3.60;;;21.60;99.90;;;;;;5030979;28;20191;-75
2022/08/26 10:03:11;;;;;;;14.77;3.03;;;21.50;99.90;;;;;;5031837;28;20558;-75
2022/08/26 10:06:06;;;;;;;11.50;3.28;;;21.50;99.90;;;;;;5030904;28;20073;-75
2022/08/26 10:08:42;;;;;;;9.85;2.55;;;21.50;99.90;;;;;;5018607;28;20053;-75
2022/08/26 10:11:32;;;;;;;8.95;2.65;;;21.50;99.90;;;;;;5031994;28;20064;-76
2022/08/26 10:14:13;;;;;;;11.10;3.22;;;21.50;99.90;;;;;;5030498;28;20091;-74
2022/08/26 10:16:55;;;;;;;13.50;2.83;;;21.60;99.90;;;;;;5030761;28;20041;-75
2022/08/26 10:19:26;;;;;;;13.68;3.17;;;21.70;99.90;;;;;;5031685;28;20045;-75
2022/08/26 10:22:00;;;;;;;13.32;3.17;;;21.80;99.90;;;;;;5030789;28;20599;-75
2022/08/26 10:24:38;;;;;;;13.75;2.88;;;21.80;99.90;;;;;;5030230;28;20041;-74
2022/08/26 10:27:36;;;;;;;9.73;2.70;;;21.70;99.90;;;;;;5013969;28;20056;-75
2022/08/26 10:30:24;;;;;;;11.60;2.70;;;21.80;99.90;;;;;;5030618;28;20037;-75
2022/08/26 10:33:07;;;;;;;12.20;2.85;;;21.90;99.90;;;;;;5014026;28;20454;-74
2022/08/26 10:35:37;;;;;;;13.55;2.92;;;21.80;99.90;;;;;;5030452;28;20038;-75
2022/08/26 10:38:09;;;;;;;11.18;2.97;;;21.80;99.90;;;;;;5031804;28;20111;-75
2022/08/26 10:40:54;;;;;;;10.67;3.00;;;21.70;99.90;;;;;;5014338;28;20124;-76
2022/08/26 10:43:49;;;;;;;13.55;3.10;;;21.70;99.90;;;;;;5028483;28;20062;-75
2022/08/26 10:46:21;;;;;;;12.02;2.83;;;21.50;99.90;;;;;;5022404;28;20484;-74
2022/08/26 10:49:07;;;;;;;11.50;3.60;;;21.50;99.90;;;;;;5018549;28;20507;-74
2022/08/26 10:51:46;;;;;;;14.80;3.65;;;21.50;99.90;;;;;;5030078;28;20056;-76
2022/08/26 10:54:38;;;;;;;11.52;3.55;;;21.50;99.90;;;;;;5029768;28;20103;-75
2022/08/26 10:57:24;;;;;;;13.02;3.88;;;21.40;99.90;;;;;;5013360;28;20045;-75
2022/08/26 10:59:55;;;;;;;10.10;3.13;;;21.40;99.90;;;;;;5031384;28;20045;-75
2022/08/26 11:02:44;;;;;;;9.13;3.15;;;21.40;99.90;;;;;;5012901;28;20044;-75
2022/08/26 11:05:22;;;;;;;11.38;3.08;;;21.40;99.90;;;;;;5031102;28;20049;-75
2022/08/26 11:07:55;;;;;;;11.32;3.35;;;21.40;99.90;;;;;;5029430;28;20403;-75
2022/08/26 11:10:21;;;;;;;10.13;2.80;;;21.40;99.90;;;;;;5029541;28;20288;-75
2022/08/26 11:12:57;;;;;;;10.38;3.47;;;21.40;99.90;;;;;;5030375;28;20045;-75
2022/08/26 11:15:28;;;;;;;12.40;3.05;;;21.50;99.90;;;;;;5029607;28;20037;-75
2022/08/26 11:18:06;;;;;;;12.05;2.90;;;21.60;99.90;;;;;;5029376;28;20132;-75
2022/08/26 11:20:43;;;;;;;10.50;3.10;;;21.60;99.90;;;;;;5030838;28;20053;-75
2022/08/26 11:23:12;;;;;;;10.52;3.53;;;21.90;99.90;;;;;;5013075;28;20480;-76
2022/08/26 11:25:57;;;;;;;9.88;2.85;;;21.60;99.90;;;;;;5029348;28;20510;-75
2022/08/26 11:28:35;;;;;;;11.68;3.10;;;21.60;99.90;;;;;;5030245;28;20049;-75
2022/08/26 11:31:02;;;;;;;12.60;3.15;;;21.70;99.90;;;;;;5029386;28;20045;-75
2022/08/26 11:33:56;;;;;;;10.82;2.72;;;21.70;99.90;;;;;;5030406;28;20076;-74
2022/08/26 11:36:45;;;;;;;10.65;2.88;;;21.80;99.90;;;;;;5029050;28;20041;-75
2022/08/26 11:39:31;;;;;;;9.18;2.70;;;21.80;99.90;;;;;;5020743;28;20053;-75
2022/08/26 11:42:28;;;;;;;9.43;2.85;;;21.90;99.90;;;;;;5030067;28;20049;-77
2022/08/26 11:44:56;;;;;;;8.35;2.42;;;21.90;99.90;;;;;;5028741;28;20045;-75
2022/08/26 11:47:30;;;;;;;9.68;2.60;;;22.10;99.90;;;;;;5028930;28;20037;-75
2022/08/26 11:50:27;;;;;;;8.27;2.47;;;22.20;99.90;;;;;;5029059;28;20435;-75
2022/08/26 11:53:00;;;;;;;10.80;2.47;;;22.40;99.90;;;;;;5014167;28;20534;-75
2022/08/26 11:55:27;;;;;;;10.98;2.70;;;22.40;99.90;;;;;;5012249;28;20043;-76
2022/08/26 11:57:56;;;;;;;8.90;2.92;;;22.40;99.90;;;;;;5028624;28;20480;-75
2022/08/26 12:00:33;;;;;;;11.43;3.35;;;22.40;99.90;;;;;;5012547;28;20053;-76
2022/08/26 12:03:03;;;;;;;8.25;2.47;;;22.30;99.90;;;;;;5028527;28;20496;-75
2022/08/26 12:05:34;;;;;;;12.23;3.00;;;22.30;99.90;;;;;;5028705;28;20517;-75
2022/08/26 12:08:07;;;;;;;11.30;2.65;;;22.10;99.90;;;;;;5037665;28;20443;-75
2022/08/26 12:10:34;;;;;;;8.07;2.35;;;22.10;99.90;;;;;;5029870;28;20488;-76
2022/08/26 12:13:06;;;;;;;13.45;2.72;;;22.10;99.90;;;;;;5029674;28;20049;-75
2022/08/26 12:15:34;;;;;;;11.38;2.60;;;22.00;99.90;;;;;;5029941;28;20499;-75
2022/08/26 12:18:30;;;;;;;13.85;2.85;;;22.10;99.90;;;;;;5029625;28;20041;-75
2022/08/26 12:21:09;;;;;;;10.60;2.67;;;21.50;99.90;;;;;;5013743;28;20049;-75
2022/08/26 12:23:35;;;;;;;13.93;2.70;;;22.10;99.90;;;;;;5011787;28;20053;-76
2022/08/26 12:26:28;;;;;;;8.85;2.55;;;22.10;99.90;;;;;;5028614;28;20045;-74
2022/08/26 12:29:09;;;;;;;10.40;2.95;;;22.00;99.90;;;;;;5028074;28;20052;-75
2022/08/26 12:31:36;;;;;;;9.65;2.40;;;21.90;99.90;;;;;;5012179;28;20090;-75
2022/08/26 12:34:07;;;;;;;10.35;2.67;;;21.90;99.90;;;;;;5027941;28;20135;-75
2022/08/26 12:36:52;;;;;;;9.57;2.63;;;21.70;99.90;;;;;;5028296;28;20076;-75
2022/08/26 12:39:50;;;;;;;10.07;2.50;;;21.60;99.90;;;;;;5028091;28;20050;-74
2022/08/26 12:42:16;;;;;;;9.90;2.70;;;21.20;99.90;;;;;;4998893;28;20137;-74
2022/08/26 12:44:45;;;;;;;8.73;2.60;;;21.10;99.90;;;;;;5026846;28;20168;-75
2022/08/26 12:47:32;;;;;;;10.00;2.70;;;21.00;99.90;;;;;;5028896;28;20049;-75
2022/08/26 12:50:06;;;;;;;9.18;2.33;;;20.80;99.90;;;;;;5028263;28;20400;-76
2022/08/26 12:53:02;;;;;;;9.98;2.40;;;20.80;99.90;;;;;;5027845;28;20033;-75
2022/08/26 12:55:30;;;;;;;8.88;2.05;;;20.70;99.90;;;;;;5000592;28;20055;-75
2022/08/26 12:58:14;;;;;;;9.13;2.10;;;20.60;99.90;;;;;;5027891;28;20124;-74